sensor_id;sensor_type;location;lat;lon;timestamp;P1;durP1;ratioP1;P2;durP2;ratioP2
8411;SDS011;4243;49.296;11.348;2023-02-15T00:00:05;109.67;;;3.13;;
8411;SDS011;4243;49.296;11.348;2023-02-15T00:02:36;110.80;;;3.10;;
8411;SDS011;4243;49.296;11.348;2023-02-15T00:05:04;110.87;;;3.10;;
8411;SDS011;4243;49.296;11.348;2023-02-15T00:07:32;110.47;;;3.10;;
8411;SDS011;4243;49.296;11.348;2023-02-15T00:10:00;111.07;;;3.13;;
8411;SDS011;4243;49.296;11.348;2023-02-15T00:12:27;111.03;;;3.10;;
8411;SDS011;4243;49.296;11.348;2023-02-15T00:14:55;107.90;;;3.10;;
8411;SDS011;4243;49.296;11.348;2023-02-15T00:17:22;109.27;;;3.07;;
8411;SDS011;4243;49.296;11.348;2023-02-15T00:19:50;109.87;;;3.17;;
8411;SDS011;4243;49.296;11.348;2023-02-15T00:22:17;110.97;;;3.10;;
8411;SDS011;4243;49.296;11.348;2023-02-15T00:24:45;110.97;;;3.17;;
8411;SDS011;4243;49.296;11.348;2023-02-15T00:27:13;109.93;;;3.20;;
8411;SDS011;4243;49.296;11.348;2023-02-15T00:29:40;110.53;;;3.10;;
8411;SDS011;4243;49.296;11.348;2023-02-15T00:32:07;110.77;;;3.10;;
8411;SDS011;4243;49.296;11.348;2023-02-15T00:34:35;109.80;;;3.10;;
8411;SDS011;4243;49.296;11.348;2023-02-15T00:37:02;109.90;;;3.13;;
8411;SDS011;4243;49.296;11.348;2023-02-15T00:39:29;110.00;;;3.10;;
8411;SDS011;4243;49.296;11.348;2023-02-15T00:41:57;109.63;;;3.17;;
8411;SDS011;4243;49.296;11.348;2023-02-15T00:44:25;108.97;;;3.10;;
8411;SDS011;4243;49.296;11.348;2023-02-15T00:46:55;109.83;;;3.13;;
8411;SDS011;4243;49.296;11.348;2023-02-15T00:49:22;110.20;;;3.10;;
8411;SDS011;4243;49.296;11.348;2023-02-15T00:51:50;110.50;;;3.13;;
8411;SDS011;4243;49.296;11.348;2023-02-15T00:54:17;110.50;;;3.10;;
8411;SDS011;4243;49.296;11.348;2023-02-15T00:56:44;110.50;;;3.13;;
8411;SDS011;4243;49.296;11.348;2023-02-15T00:59:12;110.23;;;3.10;;
8411;SDS011;4243;49.296;11.348;2023-02-15T01:01:39;110.50;;;3.10;;
8411;SDS011;4243;49.296;11.348;2023-02-15T01:04:07;110.80;;;3.10;;
8411;SDS011;4243;49.296;11.348;2023-02-15T01:06:35;110.10;;;3.10;;
8411;SDS011;4243;49.296;11.348;2023-02-15T01:09:02;110.97;;;3.13;;
8411;SDS011;4243;49.296;11.348;2023-02-15T01:11:30;110.13;;;3.17;;
8411;SDS011;4243;49.296;11.348;2023-02-15T01:13:57;108.20;;;3.20;;
8411;SDS011;4243;49.296;11.348;2023-02-15T01:16:26;108.40;;;3.10;;
8411;SDS011;4243;49.296;11.348;2023-02-15T01:18:54;110.87;;;3.10;;
8411;SDS011;4243;49.296;11.348;2023-02-15T01:21:26;109.77;;;3.17;;
8411;SDS011;4243;49.296;11.348;2023-02-15T01:23:53;110.47;;;3.17;;
8411;SDS011;4243;49.296;11.348;2023-02-15T01:26:20;111.07;;;3.17;;
8411;SDS011;4243;49.296;11.348;2023-02-15T01:28:48;109.57;;;3.20;;
8411;SDS011;4243;49.296;11.348;2023-02-15T01:31:16;109.70;;;3.20;;
8411;SDS011;4243;49.296;11.348;2023-02-15T01:33:48;110.47;;;3.20;;
8411;SDS011;4243;49.296;11.348;2023-02-15T01:36:15;109.70;;;3.20;;
8411;SDS011;4243;49.296;11.348;2023-02-15T01:38:43;107.37;;;3.13;;
8411;SDS011;4243;49.296;11.348;2023-02-15T01:41:11;110.67;;;3.17;;
8411;SDS011;4243;49.296;11.348;2023-02-15T01:43:54;110.77;;;3.13;;
8411;SDS011;4243;49.296;11.348;2023-02-15T01:49:10;110.67;;;3.13;;
8411;SDS011;4243;49.296;11.348;2023-02-15T01:51:44;110.57;;;3.17;;
8411;SDS011;4243;49.296;11.348;2023-02-15T01:54:17;109.47;;;3.20;;
8411;SDS011;4243;49.296;11.348;2023-02-15T01:56:56;110.67;;;3.17;;
8411;SDS011;4243;49.296;11.348;2023-02-15T01:59:31;110.40;;;3.20;;
8411;SDS011;4243;49.296;11.348;2023-02-15T02:02:04;109.37;;;3.20;;
8411;SDS011;4243;49.296;11.348;2023-02-15T02:04:46;109.30;;;3.10;;
8411;SDS011;4243;49.296;11.348;2023-02-15T02:07:19;111.50;;;3.20;;
8411;SDS011;4243;49.296;11.348;2023-02-15T02:09:54;110.77;;;3.20;;
8411;SDS011;4243;49.296;11.348;2023-02-15T02:12:22;109.77;;;3.17;;
8411;SDS011;4243;49.296;11.348;2023-02-15T02:14:51;110.67;;;3.20;;
8411;SDS011;4243;49.296;11.348;2023-02-15T02:29:34;109.70;;;3.20;;
8411;SDS011;4243;49.296;11.348;2023-02-15T02:45:53;109.57;;;3.20;;
8411;SDS011;4243;49.296;11.348;2023-02-15T02:48:13;110.70;;;3.13;;
8411;SDS011;4243;49.296;11.348;2023-02-15T02:50:48;111.30;;;3.13;;
8411;SDS011;4243;49.296;11.348;2023-02-15T02:53:15;110.73;;;3.13;;
8411;SDS011;4243;49.296;11.348;2023-02-15T02:55:47;109.60;;;3.20;;
8411;SDS011;4243;49.296;11.348;2023-02-15T02:58:25;110.87;;;3.20;;
8411;SDS011;4243;49.296;11.348;2023-02-15T03:01:05;111.20;;;3.20;;
8411;SDS011;4243;49.296;11.348;2023-02-15T03:04:07;110.07;;;3.23;;
8411;SDS011;4243;49.296;11.348;2023-02-15T03:06:46;109.77;;;3.27;;
8411;SDS011;4243;49.296;11.348;2023-02-15T03:09:29;110.10;;;3.20;;
8411;SDS011;4243;49.296;11.348;2023-02-15T03:12:08;109.47;;;3.13;;
8411;SDS011;4243;49.296;11.348;2023-02-15T03:14:53;110.10;;;3.20;;
8411;SDS011;4243;49.296;11.348;2023-02-15T03:17:32;111.30;;;3.20;;
8411;SDS011;4243;49.296;11.348;2023-02-15T03:20:09;109.37;;;3.30;;
8411;SDS011;4243;49.296;11.348;2023-02-15T03:22:53;110.00;;;3.27;;
8411;SDS011;4243;49.296;11.348;2023-02-15T03:25:39;109.80;;;3.27;;
8411;SDS011;4243;49.296;11.348;2023-02-15T03:28:13;109.37;;;3.23;;
8411;SDS011;4243;49.296;11.348;2023-02-15T03:30:49;109.90;;;3.20;;
8411;SDS011;4243;49.296;11.348;2023-02-15T03:33:22;110.50;;;3.23;;
8411;SDS011;4243;49.296;11.348;2023-02-15T03:36:04;109.90;;;3.17;;
8411;SDS011;4243;49.296;11.348;2023-02-15T03:38:49;108.30;;;3.20;;
8411;SDS011;4243;49.296;11.348;2023-02-15T03:41:50;110.30;;;3.27;;
8411;SDS011;4243;49.296;11.348;2023-02-15T03:47:26;109.67;;;3.27;;
8411;SDS011;4243;49.296;11.348;2023-02-15T03:52:58;110.97;;;3.27;;
8411;SDS011;4243;49.296;11.348;2023-02-15T03:55:31;110.30;;;3.30;;
8411;SDS011;4243;49.296;11.348;2023-02-15T03:58:00;109.83;;;3.30;;
8411;SDS011;4243;49.296;11.348;2023-02-15T04:00:52;110.00;;;3.30;;
8411;SDS011;4243;49.296;11.348;2023-02-15T04:03:57;111.33;;;3.33;;
8411;SDS011;4243;49.296;11.348;2023-02-15T04:06:33;110.27;;;3.30;;
8411;SDS011;4243;49.296;11.348;2023-02-15T04:09:01;111.27;;;3.30;;
8411;SDS011;4243;49.296;11.348;2023-02-15T04:11:47;111.30;;;3.35;;
8411;SDS011;4243;49.296;11.348;2023-02-15T04:14:14;110.03;;;3.27;;
8411;SDS011;4243;49.296;11.348;2023-02-15T04:17:00;109.93;;;3.40;;
8411;SDS011;4243;49.296;11.348;2023-02-15T04:19:31;108.87;;;3.30;;
8411;SDS011;4243;49.296;11.348;2023-02-15T04:22:17;108.53;;;3.30;;
8411;SDS011;4243;49.296;11.348;2023-02-15T04:25:03;109.78;;;3.30;;
8411;SDS011;4243;49.296;11.348;2023-02-15T04:27:38;110.83;;;3.30;;
8411;SDS011;4243;49.296;11.348;2023-02-15T04:30:11;110.50;;;3.30;;
8411;SDS011;4243;49.296;11.348;2023-02-15T04:32:41;110.40;;;3.30;;
8411;SDS011;4243;49.296;11.348;2023-02-15T04:35:08;111.20;;;3.37;;
8411;SDS011;4243;49.296;11.348;2023-02-15T04:37:37;108.80;;;3.33;;
8411;SDS011;4243;49.296;11.348;2023-02-15T04:40:06;107.87;;;3.30;;
8411;SDS011;4243;49.296;11.348;2023-02-15T04:42:37;109.83;;;3.27;;
8411;SDS011;4243;49.296;11.348;2023-02-15T04:45:04;111.07;;;3.30;;
8411;SDS011;4243;49.296;11.348;2023-02-15T04:47:32;110.27;;;3.37;;
8411;SDS011;4243;49.296;11.348;2023-02-15T04:50:00;109.90;;;3.30;;
8411;SDS011;4243;49.296;11.348;2023-02-15T04:52:27;110.37;;;3.30;;
8411;SDS011;4243;49.296;11.348;2023-02-15T04:54:55;109.00;;;3.30;;
8411;SDS011;4243;49.296;11.348;2023-02-15T04:57:22;108.10;;;3.27;;
8411;SDS011;4243;49.296;11.348;2023-02-15T04:59:49;110.88;;;3.28;;
8411;SDS011;4243;49.296;11.348;2023-02-15T05:02:17;109.17;;;3.27;;
8411;SDS011;4243;49.296;11.348;2023-02-15T05:04:44;109.93;;;3.22;;
8411;SDS011;4243;49.296;11.348;2023-02-15T05:07:11;110.43;;;3.20;;
8411;SDS011;4243;49.296;11.348;2023-02-15T05:09:40;110.53;;;3.30;;
8411;SDS011;4243;49.296;11.348;2023-02-15T05:12:07;110.97;;;3.30;;
8411;SDS011;4243;49.296;11.348;2023-02-15T05:14:35;109.82;;;3.30;;
8411;SDS011;4243;49.296;11.348;2023-02-15T05:17:02;109.07;;;3.30;;
8411;SDS011;4243;49.296;11.348;2023-02-15T05:19:31;109.70;;;3.30;;
8411;SDS011;4243;49.296;11.348;2023-02-15T05:21:58;110.22;;;3.30;;
8411;SDS011;4243;49.296;11.348;2023-02-15T05:24:26;109.20;;;3.30;;
8411;SDS011;4243;49.296;11.348;2023-02-15T05:27:12;107.80;;;3.30;;
8411;SDS011;4243;49.296;11.348;2023-02-15T05:29:57;109.90;;;3.30;;
8411;SDS011;4243;49.296;11.348;2023-02-15T05:32:25;110.23;;;3.27;;
8411;SDS011;4243;49.296;11.348;2023-02-15T05:34:52;108.43;;;3.30;;
8411;SDS011;4243;49.296;11.348;2023-02-15T05:37:20;110.37;;;3.30;;
8411;SDS011;4243;49.296;11.348;2023-02-15T05:39:47;111.20;;;3.30;;
8411;SDS011;4243;49.296;11.348;2023-02-15T05:42:14;108.77;;;3.33;;
8411;SDS011;4243;49.296;11.348;2023-02-15T05:44:42;110.67;;;3.30;;
8411;SDS011;4243;49.296;11.348;2023-02-15T05:47:09;111.10;;;3.30;;
8411;SDS011;4243;49.296;11.348;2023-02-15T05:49:36;109.30;;;3.27;;
8411;SDS011;4243;49.296;11.348;2023-02-15T05:52:04;110.60;;;3.23;;
8411;SDS011;4243;49.296;11.348;2023-02-15T05:54:31;109.97;;;3.23;;
8411;SDS011;4243;49.296;11.348;2023-02-15T05:56:58;110.40;;;3.30;;
8411;SDS011;4243;49.296;11.348;2023-02-15T05:59:26;110.10;;;3.30;;
8411;SDS011;4243;49.296;11.348;2023-02-15T06:01:53;110.17;;;3.30;;
8411;SDS011;4243;49.296;11.348;2023-02-15T06:04:20;110.20;;;3.30;;
8411;SDS011;4243;49.296;11.348;2023-02-15T06:06:47;109.68;;;3.22;;
8411;SDS011;4243;49.296;11.348;2023-02-15T06:09:18;109.17;;;3.30;;
8411;SDS011;4243;49.296;11.348;2023-02-15T06:11:46;109.07;;;3.27;;
8411;SDS011;4243;49.296;11.348;2023-02-15T06:14:13;110.53;;;3.25;;
8411;SDS011;4243;49.296;11.348;2023-02-15T06:16:41;109.90;;;3.23;;
8411;SDS011;4243;49.296;11.348;2023-02-15T06:19:08;111.10;;;3.30;;
8411;SDS011;4243;49.296;11.348;2023-02-15T06:21:35;109.97;;;3.25;;
8411;SDS011;4243;49.296;11.348;2023-02-15T06:24:03;109.00;;;3.27;;
8411;SDS011;4243;49.296;11.348;2023-02-15T06:26:30;110.27;;;3.20;;
8411;SDS011;4243;49.296;11.348;2023-02-15T06:28:57;111.00;;;3.28;;
8411;SDS011;4243;49.296;11.348;2023-02-15T06:31:25;109.77;;;3.27;;
8411;SDS011;4243;49.296;11.348;2023-02-15T06:33:52;109.80;;;3.23;;
8411;SDS011;4243;49.296;11.348;2023-02-15T06:36:27;111.15;;;3.30;;
8411;SDS011;4243;49.296;11.348;2023-02-15T06:38:55;111.10;;;3.27;;
8411;SDS011;4243;49.296;11.348;2023-02-15T06:41:23;109.80;;;3.20;;
8411;SDS011;4243;49.296;11.348;2023-02-15T06:43:50;111.20;;;3.28;;
8411;SDS011;4243;49.296;11.348;2023-02-15T06:46:18;111.00;;;3.30;;
8411;SDS011;4243;49.296;11.348;2023-02-15T06:48:46;109.80;;;3.27;;
8411;SDS011;4243;49.296;11.348;2023-02-15T06:51:13;110.32;;;3.28;;
8411;SDS011;4243;49.296;11.348;2023-02-15T06:53:41;109.35;;;3.22;;
8411;SDS011;4243;49.296;11.348;2023-02-15T06:56:09;110.47;;;3.20;;
8411;SDS011;4243;49.296;11.348;2023-02-15T06:58:40;109.75;;;3.25;;
8411;SDS011;4243;49.296;11.348;2023-02-15T07:01:08;110.18;;;3.30;;
8411;SDS011;4243;49.296;11.348;2023-02-15T07:03:36;110.07;;;3.23;;
8411;SDS011;4243;49.296;11.348;2023-02-15T07:06:03;110.75;;;3.28;;
8411;SDS011;4243;49.296;11.348;2023-02-15T07:08:34;111.18;;;3.28;;
8411;SDS011;4243;49.296;11.348;2023-02-15T07:11:03;109.10;;;3.22;;
8411;SDS011;4243;49.296;11.348;2023-02-15T07:13:51;110.57;;;3.30;;
8411;SDS011;4243;49.296;11.348;2023-02-15T07:16:19;109.87;;;3.23;;
8411;SDS011;4243;49.296;11.348;2023-02-15T07:18:46;108.87;;;3.30;;
8411;SDS011;4243;49.296;11.348;2023-02-15T07:21:14;110.77;;;3.27;;
8411;SDS011;4243;49.296;11.348;2023-02-15T07:23:41;109.70;;;3.30;;
8411;SDS011;4243;49.296;11.348;2023-02-15T07:26:08;110.47;;;3.20;;
8411;SDS011;4243;49.296;11.348;2023-02-15T07:28:36;108.37;;;3.17;;
8411;SDS011;4243;49.296;11.348;2023-02-15T07:31:03;110.37;;;3.27;;
8411;SDS011;4243;49.296;11.348;2023-02-15T07:33:32;109.85;;;3.25;;
8411;SDS011;4243;49.296;11.348;2023-02-15T07:36:01;108.70;;;3.20;;
8411;SDS011;4243;49.296;11.348;2023-02-15T07:38:34;110.40;;;3.28;;
8411;SDS011;4243;49.296;11.348;2023-02-15T07:41:05;110.60;;;3.25;;
8411;SDS011;4243;49.296;11.348;2023-02-15T07:43:40;110.90;;;3.23;;
8411;SDS011;4243;49.296;11.348;2023-02-15T07:46:11;108.37;;;3.20;;
8411;SDS011;4243;49.296;11.348;2023-02-15T07:48:43;109.22;;;3.20;;
8411;SDS011;4243;49.296;11.348;2023-02-15T07:51:10;109.77;;;3.20;;
8411;SDS011;4243;49.296;11.348;2023-02-15T07:53:40;110.38;;;3.30;;
8411;SDS011;4243;49.296;11.348;2023-02-15T07:56:12;110.60;;;3.33;;
8411;SDS011;4243;49.296;11.348;2023-02-15T07:58:41;109.57;;;3.30;;
8411;SDS011;4243;49.296;11.348;2023-02-15T08:01:17;110.27;;;3.40;;
8411;SDS011;4243;49.296;11.348;2023-02-15T08:03:54;109.73;;;3.40;;
8411;SDS011;4243;49.296;11.348;2023-02-15T08:06:26;108.70;;;3.33;;
8411;SDS011;4243;49.296;11.348;2023-02-15T08:08:57;109.40;;;3.30;;
8411;SDS011;4243;49.296;11.348;2023-02-15T08:11:26;109.40;;;3.30;;
8411;SDS011;4243;49.296;11.348;2023-02-15T08:14:10;109.87;;;3.30;;
8411;SDS011;4243;49.296;11.348;2023-02-15T08:16:45;109.80;;;3.33;;
8411;SDS011;4243;49.296;11.348;2023-02-15T08:19:23;110.17;;;3.30;;
8411;SDS011;4243;49.296;11.348;2023-02-15T08:21:55;109.15;;;3.25;;
8411;SDS011;4243;49.296;11.348;2023-02-15T08:24:27;110.07;;;3.27;;
8411;SDS011;4243;49.296;11.348;2023-02-15T08:26:58;110.22;;;3.30;;
8411;SDS011;4243;49.296;11.348;2023-02-15T08:29:31;108.80;;;3.28;;
8411;SDS011;4243;49.296;11.348;2023-02-15T08:32:01;110.37;;;3.27;;
8411;SDS011;4243;49.296;11.348;2023-02-15T08:34:36;108.87;;;3.30;;
8411;SDS011;4243;49.296;11.348;2023-02-15T08:37:07;108.27;;;3.23;;
8411;SDS011;4243;49.296;11.348;2023-02-15T08:39:34;109.50;;;3.20;;
8411;SDS011;4243;49.296;11.348;2023-02-15T08:42:02;107.57;;;3.20;;
8411;SDS011;4243;49.296;11.348;2023-02-15T08:44:29;109.77;;;3.20;;
8411;SDS011;4243;49.296;11.348;2023-02-15T08:46:57;109.57;;;3.20;;
8411;SDS011;4243;49.296;11.348;2023-02-15T08:49:29;109.57;;;3.20;;
8411;SDS011;4243;49.296;11.348;2023-02-15T08:51:57;108.07;;;3.20;;
8411;SDS011;4243;49.296;11.348;2023-02-15T08:54:25;109.73;;;3.23;;
8411;SDS011;4243;49.296;11.348;2023-02-15T08:56:53;108.80;;;3.23;;
8411;SDS011;4243;49.296;11.348;2023-02-15T08:59:21;110.30;;;3.27;;
8411;SDS011;4243;49.296;11.348;2023-02-15T09:03:58;110.53;;;3.30;;
8411;SDS011;4243;49.296;11.348;2023-02-15T09:06:31;109.87;;;3.30;;
8411;SDS011;4243;49.296;11.348;2023-02-15T09:08:59;110.70;;;3.30;;
8411;SDS011;4243;49.296;11.348;2023-02-15T09:11:27;109.80;;;3.23;;
8411;SDS011;4243;49.296;11.348;2023-02-15T09:14:05;109.63;;;3.27;;
8411;SDS011;4243;49.296;11.348;2023-02-15T09:16:47;110.17;;;3.23;;
8411;SDS011;4243;49.296;11.348;2023-02-15T09:19:17;109.77;;;3.30;;
8411;SDS011;4243;49.296;11.348;2023-02-15T09:21:47;108.37;;;3.30;;
8411;SDS011;4243;49.296;11.348;2023-02-15T09:24:15;109.87;;;3.23;;
8411;SDS011;4243;49.296;11.348;2023-02-15T09:26:45;109.60;;;3.20;;
8411;SDS011;4243;49.296;11.348;2023-02-15T09:29:14;108.87;;;3.20;;
8411;SDS011;4243;49.296;11.348;2023-02-15T09:31:44;110.27;;;3.27;;
8411;SDS011;4243;49.296;11.348;2023-02-15T09:34:16;109.63;;;3.20;;
8411;SDS011;4243;49.296;11.348;2023-02-15T09:36:48;109.87;;;3.17;;
8411;SDS011;4243;49.296;11.348;2023-02-15T09:39:23;109.67;;;3.17;;
8411;SDS011;4243;49.296;11.348;2023-02-15T09:42:14;110.27;;;3.10;;
8411;SDS011;4243;49.296;11.348;2023-02-15T09:45:23;109.40;;;3.10;;
8411;SDS011;4243;49.296;11.348;2023-02-15T09:48:41;109.50;;;3.17;;
8411;SDS011;4243;49.296;11.348;2023-02-15T09:51:21;110.10;;;3.13;;
8411;SDS011;4243;49.296;11.348;2023-02-15T09:56:58;109.87;;;3.20;;
8411;SDS011;4243;49.296;11.348;2023-02-15T09:59:50;110.77;;;3.10;;
8411;SDS011;4243;49.296;11.348;2023-02-15T10:05:44;110.57;;;3.00;;
8411;SDS011;4243;49.296;11.348;2023-02-15T10:12:32;108.93;;;3.07;;
8411;SDS011;4243;49.296;11.348;2023-02-15T10:21:03;110.47;;;2.90;;
8411;SDS011;4243;49.296;11.348;2023-02-15T10:27:13;110.67;;;3.00;;
8411;SDS011;4243;49.296;11.348;2023-02-15T10:29:50;111.27;;;2.97;;
8411;SDS011;4243;49.296;11.348;2023-02-15T10:33:00;110.57;;;2.90;;
8411;SDS011;4243;49.296;11.348;2023-02-15T10:38:44;110.50;;;2.90;;
8411;SDS011;4243;49.296;11.348;2023-02-15T10:41:37;110.10;;;2.90;;
8411;SDS011;4243;49.296;11.348;2023-02-15T10:50:28;109.80;;;2.83;;
8411;SDS011;4243;49.296;11.348;2023-02-15T10:56:09;109.90;;;2.83;;
8411;SDS011;4243;49.296;11.348;2023-02-15T11:08:24;110.90;;;2.83;;
8411;SDS011;4243;49.296;11.348;2023-02-15T11:11:00;110.63;;;2.90;;
8411;SDS011;4243;49.296;11.348;2023-02-15T11:13:43;110.63;;;2.83;;
8411;SDS011;4243;49.296;11.348;2023-02-15T11:16:16;110.47;;;2.90;;
8411;SDS011;4243;49.296;11.348;2023-02-15T11:18:52;110.77;;;2.87;;
8411;SDS011;4243;49.296;11.348;2023-02-15T11:21:27;110.57;;;2.80;;
8411;SDS011;4243;49.296;11.348;2023-02-15T11:24:14;110.63;;;2.83;;
8411;SDS011;4243;49.296;11.348;2023-02-15T11:26:48;111.10;;;2.80;;
8411;SDS011;4243;49.296;11.348;2023-02-15T11:32:19;110.80;;;2.83;;
8411;SDS011;4243;49.296;11.348;2023-02-15T11:34:54;110.70;;;2.80;;
8411;SDS011;4243;49.296;11.348;2023-02-15T11:38:01;110.67;;;2.77;;
8411;SDS011;4243;49.296;11.348;2023-02-15T11:40:58;110.30;;;2.80;;
8411;SDS011;4243;49.296;11.348;2023-02-15T11:43:58;109.73;;;2.80;;
8411;SDS011;4243;49.296;11.348;2023-02-15T11:46:41;110.10;;;2.80;;
8411;SDS011;4243;49.296;11.348;2023-02-15T11:49:19;110.57;;;2.80;;
8411;SDS011;4243;49.296;11.348;2023-02-15T11:51:56;111.07;;;2.80;;
8411;SDS011;4243;49.296;11.348;2023-02-15T11:54:29;110.30;;;2.70;;
8411;SDS011;4243;49.296;11.348;2023-02-15T11:57:14;111.47;;;2.70;;
8411;SDS011;4243;49.296;11.348;2023-02-15T12:02:42;111.00;;;2.77;;
8411;SDS011;4243;49.296;11.348;2023-02-15T12:05:19;110.97;;;2.80;;
8411;SDS011;4243;49.296;11.348;2023-02-15T12:07:55;111.77;;;2.73;;
8411;SDS011;4243;49.296;11.348;2023-02-15T12:10:36;110.50;;;2.70;;
8411;SDS011;4243;49.296;11.348;2023-02-15T12:13:22;111.40;;;2.70;;
8411;SDS011;4243;49.296;11.348;2023-02-15T12:15:50;111.37;;;2.70;;
8411;SDS011;4243;49.296;11.348;2023-02-15T12:18:33;110.80;;;2.70;;
8411;SDS011;4243;49.296;11.348;2023-02-15T12:21:12;110.90;;;2.77;;
8411;SDS011;4243;49.296;11.348;2023-02-15T12:23:54;110.93;;;2.70;;
8411;SDS011;4243;49.296;11.348;2023-02-15T12:26:31;111.50;;;2.80;;
8411;SDS011;4243;49.296;11.348;2023-02-15T12:29:05;111.17;;;2.70;;
8411;SDS011;4243;49.296;11.348;2023-02-15T12:31:43;110.53;;;2.70;;
8411;SDS011;4243;49.296;11.348;2023-02-15T12:34:21;111.67;;;2.70;;
8411;SDS011;4243;49.296;11.348;2023-02-15T12:37:02;111.57;;;2.80;;
8411;SDS011;4243;49.296;11.348;2023-02-15T12:39:53;111.87;;;2.80;;
8411;SDS011;4243;49.296;11.348;2023-02-15T12:42:27;111.40;;;2.77;;
8411;SDS011;4243;49.296;11.348;2023-02-15T12:45:26;110.70;;;2.73;;
8411;SDS011;4243;49.296;11.348;2023-02-15T12:50:49;111.00;;;2.70;;
8411;SDS011;4243;49.296;11.348;2023-02-15T12:53:30;111.60;;;2.70;;
8411;SDS011;4243;49.296;11.348;2023-02-15T12:56:02;111.97;;;2.70;;
8411;SDS011;4243;49.296;11.348;2023-02-15T12:58:35;111.30;;;2.80;;
8411;SDS011;4243;49.296;11.348;2023-02-15T13:03:35;111.97;;;2.80;;
8411;SDS011;4243;49.296;11.348;2023-02-15T13:06:20;111.73;;;2.80;;
8411;SDS011;4243;49.296;11.348;2023-02-15T13:08:49;111.30;;;2.80;;
8411;SDS011;4243;49.296;11.348;2023-02-15T13:11:21;111.37;;;2.77;;
8411;SDS011;4243;49.296;11.348;2023-02-15T13:14:01;111.67;;;2.77;;
8411;SDS011;4243;49.296;11.348;2023-02-15T13:16:45;111.57;;;2.70;;
8411;SDS011;4243;49.296;11.348;2023-02-15T13:21:55;111.20;;;2.80;;
8411;SDS011;4243;49.296;11.348;2023-02-15T13:24:25;110.07;;;2.80;;
8411;SDS011;4243;49.296;11.348;2023-02-15T13:27:00;110.57;;;2.73;;
8411;SDS011;4243;49.296;11.348;2023-02-15T13:29:42;111.17;;;2.77;;
8411;SDS011;4243;49.296;11.348;2023-02-15T13:32:26;110.77;;;2.80;;
8411;SDS011;4243;49.296;11.348;2023-02-15T13:35:03;110.60;;;2.80;;
8411;SDS011;4243;49.296;11.348;2023-02-15T13:40:43;109.77;;;2.73;;
8411;SDS011;4243;49.296;11.348;2023-02-15T13:46:21;110.77;;;2.80;;
8411;SDS011;4243;49.296;11.348;2023-02-15T13:49:39;111.07;;;2.70;;
8411;SDS011;4243;49.296;11.348;2023-02-15T13:52:40;110.97;;;2.77;;
8411;SDS011;4243;49.296;11.348;2023-02-15T13:55:36;111.40;;;2.80;;
8411;SDS011;4243;49.296;11.348;2023-02-15T13:58:14;111.00;;;2.80;;
8411;SDS011;4243;49.296;11.348;2023-02-15T14:04:59;111.43;;;2.80;;
8411;SDS011;4243;49.296;11.348;2023-02-15T14:14:11;112.47;;;2.70;;
8411;SDS011;4243;49.296;11.348;2023-02-15T14:17:26;111.57;;;2.73;;
8411;SDS011;4243;49.296;11.348;2023-02-15T14:23:55;109.47;;;2.70;;
8411;SDS011;4243;49.296;11.348;2023-02-15T14:29:56;112.60;;;2.70;;
8411;SDS011;4243;49.296;11.348;2023-02-15T14:32:31;111.07;;;2.70;;
8411;SDS011;4243;49.296;11.348;2023-02-15T14:35:15;112.67;;;2.70;;
8411;SDS011;4243;49.296;11.348;2023-02-15T14:38:02;111.70;;;2.70;;
8411;SDS011;4243;49.296;11.348;2023-02-15T14:40:56;111.60;;;2.70;;
8411;SDS011;4243;49.296;11.348;2023-02-15T14:49:45;111.40;;;2.73;;
8411;SDS011;4243;49.296;11.348;2023-02-15T14:52:12;110.67;;;2.70;;
8411;SDS011;4243;49.296;11.348;2023-02-15T15:02:23;112.47;;;2.70;;
8411;SDS011;4243;49.296;11.348;2023-02-15T15:08:01;112.67;;;2.67;;
8411;SDS011;4243;49.296;11.348;2023-02-15T15:10:33;112.60;;;2.67;;
8411;SDS011;4243;49.296;11.348;2023-02-15T15:13:34;111.27;;;2.70;;
8411;SDS011;4243;49.296;11.348;2023-02-15T15:19:09;111.57;;;2.70;;
8411;SDS011;4243;49.296;11.348;2023-02-15T15:25:08;111.70;;;2.70;;
8411;SDS011;4243;49.296;11.348;2023-02-15T15:51:14;111.30;;;2.80;;
8411;SDS011;4243;49.296;11.348;2023-02-15T15:53:48;110.97;;;2.80;;
8411;SDS011;4243;49.296;11.348;2023-02-15T15:56:20;110.57;;;2.87;;
8411;SDS011;4243;49.296;11.348;2023-02-15T15:59:02;111.07;;;2.80;;
8411;SDS011;4243;49.296;11.348;2023-02-15T16:01:43;110.17;;;2.80;;
8411;SDS011;4243;49.296;11.348;2023-02-15T16:04:34;110.57;;;2.80;;
8411;SDS011;4243;49.296;11.348;2023-02-15T16:09:56;110.77;;;2.80;;
8411;SDS011;4243;49.296;11.348;2023-02-15T16:12:34;110.80;;;2.87;;
8411;SDS011;4243;49.296;11.348;2023-02-15T16:15:15;110.60;;;2.87;;
8411;SDS011;4243;49.296;11.348;2023-02-15T16:17:55;111.10;;;2.80;;
8411;SDS011;4243;49.296;11.348;2023-02-15T16:20:26;110.57;;;2.87;;
8411;SDS011;4243;49.296;11.348;2023-02-15T16:23:16;110.47;;;2.93;;
8411;SDS011;4243;49.296;11.348;2023-02-15T16:26:07;110.93;;;2.90;;
8411;SDS011;4243;49.296;11.348;2023-02-15T16:29:26;110.07;;;2.87;;
8411;SDS011;4243;49.296;11.348;2023-02-15T16:32:05;110.47;;;2.90;;
8411;SDS011;4243;49.296;11.348;2023-02-15T16:35:20;109.23;;;2.90;;
8411;SDS011;4243;49.296;11.348;2023-02-15T16:37:43;108.67;;;2.90;;
8411;SDS011;4243;49.296;11.348;2023-02-15T16:42:51;110.67;;;2.87;;
8411;SDS011;4243;49.296;11.348;2023-02-15T16:45:28;108.67;;;2.90;;
8411;SDS011;4243;49.296;11.348;2023-02-15T16:47:59;110.20;;;2.90;;
8411;SDS011;4243;49.296;11.348;2023-02-15T16:50:37;109.97;;;2.90;;
8411;SDS011;4243;49.296;11.348;2023-02-15T16:53:07;110.27;;;2.90;;
8411;SDS011;4243;49.296;11.348;2023-02-15T16:55:48;110.00;;;2.93;;
8411;SDS011;4243;49.296;11.348;2023-02-15T16:58:31;110.10;;;3.00;;
8411;SDS011;4243;49.296;11.348;2023-02-15T17:01:11;110.37;;;3.00;;
8411;SDS011;4243;49.296;11.348;2023-02-15T17:03:41;110.37;;;2.97;;
8411;SDS011;4243;49.296;11.348;2023-02-15T17:06:22;110.17;;;3.00;;
8411;SDS011;4243;49.296;11.348;2023-02-15T17:09:05;110.47;;;3.00;;
8411;SDS011;4243;49.296;11.348;2023-02-15T17:11:44;109.33;;;2.97;;
8411;SDS011;4243;49.296;11.348;2023-02-15T17:14:12;109.87;;;3.00;;
8411;SDS011;4243;49.296;11.348;2023-02-15T17:16:48;109.30;;;2.93;;
8411;SDS011;4243;49.296;11.348;2023-02-15T17:19:24;110.37;;;3.00;;
8411;SDS011;4243;49.296;11.348;2023-02-15T17:22:01;109.80;;;3.07;;
8411;SDS011;4243;49.296;11.348;2023-02-15T17:24:42;109.70;;;3.00;;
8411;SDS011;4243;49.296;11.348;2023-02-15T17:27:12;110.27;;;3.00;;
8411;SDS011;4243;49.296;11.348;2023-02-15T17:29:51;108.67;;;2.97;;
8411;SDS011;4243;49.296;11.348;2023-02-15T17:32:28;109.30;;;3.00;;
8411;SDS011;4243;49.296;11.348;2023-02-15T17:35:01;109.10;;;3.00;;
8411;SDS011;4243;49.296;11.348;2023-02-15T17:40:51;110.00;;;3.00;;
8411;SDS011;4243;49.296;11.348;2023-02-15T17:43:18;110.50;;;2.97;;
8411;SDS011;4243;49.296;11.348;2023-02-15T17:45:49;110.80;;;3.03;;
8411;SDS011;4243;49.296;11.348;2023-02-15T17:48:22;110.50;;;3.00;;
8411;SDS011;4243;49.296;11.348;2023-02-15T17:53:48;110.07;;;3.00;;
8411;SDS011;4243;49.296;11.348;2023-02-15T17:56:34;110.37;;;3.00;;
8411;SDS011;4243;49.296;11.348;2023-02-15T17:59:03;110.23;;;3.00;;
8411;SDS011;4243;49.296;11.348;2023-02-15T18:01:36;110.27;;;3.03;;
8411;SDS011;4243;49.296;11.348;2023-02-15T18:04:33;109.37;;;3.00;;
8411;SDS011;4243;49.296;11.348;2023-02-15T18:07:21;109.53;;;3.00;;
8411;SDS011;4243;49.296;11.348;2023-02-15T18:10:12;110.10;;;3.03;;
8411;SDS011;4243;49.296;11.348;2023-02-15T18:13:03;110.07;;;3.00;;